Time;durP1;ratioP1;P1;durP2;ratioP2;P2;SDS_P1;SDS_P2;PMS_P1;PMS_P2;Temp;Humidity;BMP_temperature;BMP_pressure;BME280_temperature;BME280_humidity;BME280_pressure;Samples;Min_cycle;Max_cycle;Signal;HPM_P1;HPM_P2
2021/11/20 00:01:13;;;;;;;6.63;1.17;;;;;;;;;;5075442;28;20103;-65
2021/11/20 00:03:43;;;;;;;3.50;0.98;;;;;;;;;;5057533;28;20029;-65
2021/11/20 00:06:09;;;;;;;7.30;0.95;;;;;;;;;;5075340;28;20691;-65
2021/11/20 00:08:35;;;;;;;1.05;0.77;;;;;;;;;;5075238;28;20033;-65
2021/11/20 00:11:02;;;;;;;4.35;0.80;;;;;;;;;;5075053;28;20066;-66
2021/11/20 00:13:29;;;;;;;3.33;0.82;;;;;;;;;;5075506;28;20028;-66
2021/11/20 00:15:57;;;;;;;2.17;0.90;;;;;;;;;;5074619;28;20072;-66
2021/11/20 00:18:23;;;;;;;4.82;1.20;;;;;;;;;;5074594;28;20542;-65
2021/11/20 00:20:53;;;;;;;2.67;0.90;;;;;;;;;;5074989;28;20017;-65
2021/11/20 00:23:22;;;;;;;3.13;0.85;;;;;;;;;;5075103;28;20484;-65
2021/11/20 00:25:54;;;;;;;4.15;0.90;;;;;;;;;;5074908;28;20426;-65
2021/11/20 00:28:28;;;;;;;7.45;1.13;;;;;;;;;;5074936;28;20029;-65
2021/11/20 00:30:57;;;;;;;4.55;0.80;;;;;;;;;;5056928;28;20074;-65
2021/11/20 00:33:25;;;;;;;4.57;0.80;;;;;;;;;;5074793;28;20074;-65
2021/11/20 00:35:53;;;;;;;3.17;1.00;;;;;;;;;;5074619;28;20028;-65
2021/11/20 00:38:19;;;;;;;2.30;0.70;;;;;;;;;;5074897;28;20021;-64
2021/11/20 00:40:47;;;;;;;2.42;0.98;;;;;;;;;;5056649;28;20384;-65
2021/11/20 00:43:14;;;;;;;1.65;0.80;;;;;;;;;;5073195;28;20017;-65
2021/11/20 00:45:40;;;;;;;2.83;0.75;;;;;;;;;;5074595;28;20020;-65
2021/11/20 00:48:07;;;;;;;2.10;0.90;;;;;;;;;;5074461;28;20040;-66
2021/11/20 00:50:34;;;;;;;4.00;1.23;;;;;;;;;;5074420;28;20032;-66
2021/11/20 00:53:00;;;;;;;4.82;0.90;;;;;;;;;;5074771;28;20063;-65
2021/11/20 00:55:27;;;;;;;4.18;1.20;;;;;;;;;;5074453;28;20024;-66
2021/11/20 00:57:54;;;;;;;4.78;0.88;;;;;;;;;;5074475;28;20023;-65
2021/11/20 01:00:22;;;;;;;2.22;0.80;;;;;;;;;;5074505;28;20476;-66
2021/11/20 01:02:48;;;;;;;5.68;0.88;;;;;;;;;;5074490;28;20406;-66
2021/11/20 01:05:15;;;;;;;3.88;1.02;;;;;;;;;;5074346;28;20354;-65
2021/11/20 01:07:41;;;;;;;5.70;1.00;;;;;;;;;;5056074;28;20029;-66
2021/11/20 01:10:08;;;;;;;3.58;0.90;;;;;;;;;;5074135;28;20028;-66
2021/11/20 01:12:35;;;;;;;6.60;1.00;;;;;;;;;;5074219;28;20036;-66
2021/11/20 01:15:02;;;;;;;3.45;1.10;;;;;;;;;;5073765;28;20052;-66
2021/11/20 01:17:30;;;;;;;3.90;1.13;;;;;;;;;;5073883;28;20028;-65
2021/11/20 01:19:56;;;;;;;2.58;1.00;;;;;;;;;;5074206;28;20095;-66
2021/11/20 01:22:23;;;;;;;4.72;0.93;;;;;;;;;;5073684;28;20614;-65
2021/11/20 01:24:50;;;;;;;10.55;1.13;;;;;;;;;;5073885;28;20349;-66
2021/11/20 01:27:16;;;;;;;3.13;1.00;;;;;;;;;;5073619;28;20378;-65
2021/11/20 01:29:42;;;;;;;3.33;0.82;;;;;;;;;;5073665;28;20095;-66
2021/11/20 01:32:09;;;;;;;6.88;1.20;;;;;;;;;;5073538;28;20119;-66
2021/11/20 01:34:35;;;;;;;1.92;0.88;;;;;;;;;;5073711;28;20016;-66
2021/11/20 01:37:02;;;;;;;2.45;1.00;;;;;;;;;;5073511;28;20117;-65
2021/11/20 01:39:30;;;;;;;1.65;0.90;;;;;;;;;;5073549;28;20039;-66
2021/11/20 01:41:58;;;;;;;4.43;0.95;;;;;;;;;;5073516;28;20170;-65
2021/11/20 01:44:53;;;;;;;2.22;1.02;;;;;;;;;;5073333;28;20024;-66
2021/11/20 01:47:21;;;;;;;3.83;0.90;;;;;;;;;;5055985;28;20072;-66
2021/11/20 01:49:50;;;;;;;5.97;1.05;;;;;;;;;;5073435;28;20025;-66
2021/11/20 01:52:35;;;;;;;2.67;1.00;;;;;;;;;;5073130;28;20029;-66
2021/11/20 01:55:08;;;;;;;1.85;0.90;;;;;;;;;;5073202;28;20016;-66
2021/11/20 01:57:53;;;;;;;13.57;1.20;;;;;;;;;;5073289;28;20115;-66
2021/11/20 02:00:25;;;;;;;3.78;1.15;;;;;;;;;;5073066;28;20659;-66
2021/11/20 02:02:56;;;;;;;1.98;1.23;;;;;;;;;;5072993;28;20035;-67
2021/11/20 02:05:38;;;;;;;4.13;0.90;;;;;;;;;;5073547;28;20036;-65
2021/11/20 02:08:13;;;;;;;4.95;1.20;;;;;;;;;;5073042;28;20033;-65
2021/11/20 02:10:45;;;;;;;3.03;1.05;;;;;;;;;;5072976;28;20471;-66
2021/11/20 02:13:13;;;;;;;4.22;1.23;;;;;;;;;;5072683;28;20391;-66
2021/11/20 02:15:42;;;;;;;5.15;1.00;;;;;;;;;;5072961;28;20045;-65
2021/11/20 02:18:09;;;;;;;13.20;1.20;;;;;;;;;;5073293;28;20016;-65
2021/11/20 02:20:38;;;;;;;8.13;1.00;;;;;;;;;;5072920;28;20021;-65
2021/11/20 02:23:05;;;;;;;4.38;1.38;;;;;;;;;;5072974;28;20020;-65
2021/11/20 02:25:31;;;;;;;8.48;1.48;;;;;;;;;;5072848;28;20648;-65
2021/11/20 02:27:58;;;;;;;4.05;1.48;;;;;;;;;;5072698;28;20041;-65
2021/11/20 02:30:26;;;;;;;5.72;1.88;;;;;;;;;;5072808;28;20027;-65
2021/11/20 02:32:59;;;;;;;14.20;1.35;;;;;;;;;;5072690;28;20556;-65
2021/11/20 02:35:31;;;;;;;2.88;1.10;;;;;;;;;;5072911;28;20086;-65
2021/11/20 02:37:58;;;;;;;5.78;1.27;;;;;;;;;;5072530;28;20518;-65
2021/11/20 02:40:25;;;;;;;4.55;1.20;;;;;;;;;;5072319;28;20113;-65
2021/11/20 02:42:51;;;;;;;7.65;1.40;;;;;;;;;;5047392;28;20025;-65
2021/11/20 02:45:24;;;;;;;5.55;1.27;;;;;;;;;;5052966;28;20025;-65
2021/11/20 02:47:50;;;;;;;9.77;1.60;;;;;;;;;;5052327;28;20477;-66
2021/11/20 02:50:24;;;;;;;4.65;1.30;;;;;;;;;;5052475;28;20056;-66
2021/11/20 02:52:50;;;;;;;10.00;1.30;;;;;;;;;;5052387;28;20035;-66
2021/11/20 02:55:16;;;;;;;6.78;1.45;;;;;;;;;;5071740;28;20475;-66
2021/11/20 02:57:43;;;;;;;6.70;1.77;;;;;;;;;;5072746;28;20025;-65
2021/11/20 03:00:10;;;;;;;4.40;1.70;;;;;;;;;;5072676;28;20028;-66
2021/11/20 03:02:36;;;;;;;4.28;1.52;;;;;;;;;;5072503;28;20052;-66
2021/11/20 03:05:03;;;;;;;8.82;1.85;;;;;;;;;;5072520;28;20021;-67
2021/11/20 03:07:29;;;;;;;4.78;1.50;;;;;;;;;;5072407;28;20155;-66
2021/11/20 03:09:56;;;;;;;8.52;1.98;;;;;;;;;;5072727;28;20104;-66
2021/11/20 03:12:22;;;;;;;4.85;1.58;;;;;;;;;;5072307;28;20025;-66
2021/11/20 03:14:48;;;;;;;12.40;1.80;;;;;;;;;;5072364;28;20373;-66
2021/11/20 03:17:14;;;;;;;3.17;1.55;;;;;;;;;;5072393;28;20080;-66
2021/11/20 03:19:42;;;;;;;4.20;1.65;;;;;;;;;;5072316;28;20345;-66
2021/11/20 03:22:10;;;;;;;8.07;2.03;;;;;;;;;;5054307;28;20656;-66
2021/11/20 03:24:37;;;;;;;13.98;1.83;;;;;;;;;;5072152;28;20032;-66
2021/11/20 03:27:03;;;;;;;4.72;1.83;;;;;;;;;;5072420;28;20028;-67
2021/11/20 03:29:29;;;;;;;7.03;2.10;;;;;;;;;;5072466;28;20025;-66
2021/11/20 03:31:56;;;;;;;4.68;1.80;;;;;;;;;;5072422;28;20078;-66
2021/11/20 03:34:23;;;;;;;4.22;1.90;;;;;;;;;;5072051;28;20028;-66
2021/11/20 03:36:50;;;;;;;4.40;2.10;;;;;;;;;;5072204;28;20021;-66
2021/11/20 03:39:17;;;;;;;8.45;1.90;;;;;;;;;;5072111;28;20507;-65
2021/11/20 03:41:43;;;;;;;5.75;2.10;;;;;;;;;;5072169;28;20038;-65
2021/11/20 03:44:09;;;;;;;4.13;1.80;;;;;;;;;;5072131;28;20086;-66
2021/11/20 03:46:36;;;;;;;4.78;2.10;;;;;;;;;;5072006;28;20033;-66
2021/11/20 03:49:02;;;;;;;7.63;2.10;;;;;;;;;;5071825;28;20377;-66
2021/11/20 03:51:28;;;;;;;3.47;1.80;;;;;;;;;;5072647;28;20037;-66
2021/11/20 03:53:55;;;;;;;6.55;2.20;;;;;;;;;;5075418;28;20391;-66
2021/11/20 03:56:21;;;;;;;11.60;2.50;;;;;;;;;;5075580;28;20078;-66
2021/11/20 03:58:47;;;;;;;6.75;2.08;;;;;;;;;;5075191;28;20617;-66
2021/11/20 04:01:16;;;;;;;6.97;2.25;;;;;;;;;;5075569;28;20078;-66
2021/11/20 04:03:43;;;;;;;3.80;2.20;;;;;;;;;;5075247;28;20028;-66
2021/11/20 04:06:12;;;;;;;4.35;2.28;;;;;;;;;;5075486;28;20027;-66
2021/11/20 04:08:45;;;;;;;7.35;2.22;;;;;;;;;;5075442;28;20028;-66
2021/11/20 04:11:11;;;;;;;9.50;2.63;;;;;;;;;;5075240;28;20028;-66
2021/11/20 04:13:38;;;;;;;11.43;2.08;;;;;;;;;;5075263;28;20035;-66
2021/11/20 04:16:05;;;;;;;4.65;2.28;;;;;;;;;;5075175;28;20487;-66
2021/11/20 04:18:31;;;;;;;6.60;2.28;;;;;;;;;;5075251;28;20029;-66
2021/11/20 04:20:57;;;;;;;5.60;2.00;;;;;;;;;;5074883;28;20039;-66
2021/11/20 04:23:23;;;;;;;7.80;2.30;;;;;;;;;;5075192;28;20034;-66
2021/11/20 04:25:49;;;;;;;8.50;2.22;;;;;;;;;;5075078;28;20047;-66
2021/11/20 04:28:15;;;;;;;4.43;1.90;;;;;;;;;;5056981;28;20033;-66
2021/11/20 04:30:41;;;;;;;7.97;2.10;;;;;;;;;;5074977;28;20024;-66
2021/11/20 04:33:07;;;;;;;5.60;2.40;;;;;;;;;;5056860;28;20017;-65
2021/11/20 04:35:34;;;;;;;9.63;2.58;;;;;;;;;;5074725;28;20028;-66
2021/11/20 04:38:00;;;;;;;7.03;2.40;;;;;;;;;;5074906;28;20025;-66
2021/11/20 04:40:26;;;;;;;3.67;2.28;;;;;;;;;;5074823;28;20032;-66
2021/11/20 04:42:52;;;;;;;6.03;2.50;;;;;;;;;;5074816;28;20062;-67
2021/11/20 04:45:20;;;;;;;9.18;3.03;;;;;;;;;;5074865;28;20021;-65
2021/11/20 04:47:46;;;;;;;12.43;2.72;;;;;;;;;;5074581;28;20474;-66
2021/11/20 04:50:13;;;;;;;20.23;3.38;;;;;;;;;;5074430;28;20028;-66
2021/11/20 04:52:39;;;;;;;10.00;3.15;;;;;;;;;;5074855;28;20107;-65
2021/11/20 04:55:07;;;;;;;9.88;3.30;;;;;;;;;;5074379;28;20048;-65
2021/11/20 04:57:34;;;;;;;11.38;3.10;;;;;;;;;;5074332;28;20407;-66
2021/11/20 05:00:00;;;;;;;14.98;2.85;;;;;;;;;;5074265;28;20031;-66
2021/11/20 05:02:26;;;;;;;7.70;3.25;;;;;;;;;;5074242;28;20017;-66
2021/11/20 05:04:52;;;;;;;6.35;3.28;;;;;;;;;;5056278;28;20345;-66
2021/11/20 05:07:18;;;;;;;10.07;3.15;;;;;;;;;;5074151;28;20537;-66
2021/11/20 05:09:44;;;;;;;13.98;3.10;;;;;;;;;;5056352;28;20043;-65
2021/11/20 05:12:10;;;;;;;8.13;2.83;;;;;;;;;;5074209;28;20028;-67
2021/11/20 05:14:37;;;;;;;8.75;3.25;;;;;;;;;;5074110;28;20038;-66
2021/11/20 05:17:04;;;;;;;7.80;2.30;;;;;;;;;;5073952;28;20380;-65
2021/11/20 05:19:30;;;;;;;12.40;3.10;;;;;;;;;;5073589;28;20470;-65
2021/11/20 05:21:56;;;;;;;7.00;2.53;;;;;;;;;;5073466;28;20085;-66
2021/11/20 05:24:23;;;;;;;6.03;3.20;;;;;;;;;;5073584;28;20017;-66
2021/11/20 05:26:53;;;;;;;16.50;3.50;;;;;;;;;;5073658;28;20075;-66
2021/11/20 05:31:54;;;;;;;8.30;3.10;;;;;;;;;;5073321;28;20032;-66
2021/11/20 05:34:20;;;;;;;15.15;3.40;;;;;;;;;;5073404;28;20067;-66
2021/11/20 05:36:46;;;;;;;8.73;3.50;;;;;;;;;;5073231;28;20052;-66
2021/11/20 05:39:12;;;;;;;12.27;4.75;;;;;;;;;;5073128;28;20661;-66
2021/11/20 05:41:39;;;;;;;6.72;3.58;;;;;;;;;;5073257;28;20028;-66
2021/11/20 05:44:05;;;;;;;9.70;3.28;;;;;;;;;;5072606;28;20016;-66
2021/11/20 05:46:31;;;;;;;4.65;3.50;;;;;;;;;;5072879;28;20033;-65
2021/11/20 05:48:57;;;;;;;5.78;3.53;;;;;;;;;;5072741;28;20096;-66
2021/11/20 05:51:23;;;;;;;6.05;3.30;;;;;;;;;;5077134;28;20032;-66
2021/11/20 05:53:50;;;;;;;25.25;3.83;;;;;;;;;;5074983;28;20479;-66
2021/11/20 05:56:17;;;;;;;5.85;3.63;;;;;;;;;;5074248;28;20081;-66
2021/11/20 05:58:44;;;;;;;10.38;3.60;;;;;;;;;;5074258;28;20056;-66
2021/11/20 06:01:11;;;;;;;5.22;3.75;;;;;;;;;;5056343;28;20337;-66
2021/11/20 06:03:39;;;;;;;6.70;3.83;;;;;;;;;;5075715;28;20031;-65
2021/11/20 06:06:06;;;;;;;9.23;3.33;;;;;;;;;;5077532;28;20052;-66
2021/11/20 06:08:32;;;;;;;6.15;3.40;;;;;;;;;;5074327;28;20464;-65
2021/11/20 06:11:01;;;;;;;10.35;3.15;;;;;;;;;;5054424;28;20021;-65
2021/11/20 06:13:29;;;;;;;7.68;3.10;;;;;;;;;;5069794;28;20083;-66
2021/11/20 06:15:56;;;;;;;7.55;2.92;;;;;;;;;;5071526;28;20048;-66
2021/11/20 06:18:23;;;;;;;3.90;3.15;;;;;;;;;;5037726;28;20033;-65
2021/11/20 06:20:50;;;;;;;5.30;3.30;;;;;;;;;;5054345;28;20030;-66
2021/11/20 06:23:17;;;;;;;20.02;3.67;;;;;;;;;;5076094;28;20032;-65
2021/11/20 06:25:43;;;;;;;21.85;8.48;;;;;;;;;;5073444;28;20033;-64
2021/11/20 06:28:09;;;;;;;19.75;11.73;;;;;;;;;;5071895;28;20040;-65
2021/11/20 06:30:36;;;;;;;18.05;12.07;;;;;;;;;;5069815;28;20024;-65
2021/11/20 06:33:04;;;;;;;18.95;11.90;;;;;;;;;;5072388;28;20029;-65
2021/11/20 06:35:31;;;;;;;18.67;12.38;;;;;;;;;;5072785;28;20482;-65
2021/11/20 06:37:58;;;;;;;19.80;13.55;;;;;;;;;;5056174;28;20060;-64
2021/11/20 06:40:28;;;;;;;19.73;13.65;;;;;;;;;;5072260;28;20035;-65
2021/11/20 06:42:55;;;;;;;17.92;13.98;;;;;;;;;;5072041;28;20075;-64
2021/11/20 06:45:23;;;;;;;21.77;13.85;;;;;;;;;;5071441;28;20029;-66
2021/11/20 06:47:50;;;;;;;22.88;14.35;;;;;;;;;;5071804;28;20060;-66
2021/11/20 06:50:16;;;;;;;18.17;15.02;;;;;;;;;;5070604;28;20021;-65
2021/11/20 06:52:42;;;;;;;18.40;14.43;;;;;;;;;;5071556;28;20024;-65
2021/11/20 06:55:10;;;;;;;21.58;15.05;;;;;;;;;;5067509;28;20080;-65
2021/11/20 06:57:49;;;;;;;22.13;14.05;;;;;;;;;;5057873;28;20032;-64
2021/11/20 07:00:28;;;;;;;18.85;14.40;;;;;;;;;;5071416;28;20074;-64
2021/11/20 07:03:09;;;;;;;19.08;15.13;;;;;;;;;;5071712;28;20029;-64
2021/11/20 07:05:39;;;;;;;19.20;15.10;;;;;;;;;;5071930;28;20146;-64
2021/11/20 07:08:05;;;;;;;18.20;15.48;;;;;;;;;;5071534;28;20060;-65
2021/11/20 07:10:33;;;;;;;20.63;15.05;;;;;;;;;;5073422;28;20063;-63
2021/11/20 07:12:59;;;;;;;18.52;14.05;;;;;;;;;;5071289;28;20020;-64
2021/11/20 07:15:26;;;;;;;19.33;14.93;;;;;;;;;;5072223;28;20048;-64
2021/11/20 07:17:52;;;;;;;21.75;14.20;;;;;;;;;;5072247;28;20044;-64
2021/11/20 07:20:19;;;;;;;19.13;14.77;;;;;;;;;;5072153;28;20021;-64
2021/11/20 07:22:46;;;;;;;22.25;15.60;;;;;;;;;;5072606;28;20033;-64
2021/11/20 07:25:12;;;;;;;18.35;14.75;;;;;;;;;;5071466;28;20032;-64
2021/11/20 07:27:38;;;;;;;21.35;14.32;;;;;;;;;;5075591;28;20112;-63
2021/11/20 07:30:07;;;;;;;16.55;13.70;;;;;;;;;;5075801;28;20039;-64
2021/11/20 07:32:32;;;;;;;18.30;14.63;;;;;;;;;;5075839;28;20032;-64
2021/11/20 07:34:58;;;;;;;20.70;15.02;;;;;;;;;;5075733;28;20078;-64
2021/11/20 07:37:25;;;;;;;19.80;14.75;;;;;;;;;;5075743;28;20028;-64
2021/11/20 07:39:51;;;;;;;23.00;14.40;;;;;;;;;;5075942;28;20071;-65
2021/11/20 07:42:17;;;;;;;38.15;14.27;;;;;;;;;;5059511;28;20509;-64
2021/11/20 07:44:43;;;;;;;20.92;13.65;;;;;;;;;;5075903;28;20051;-64
2021/11/20 07:47:10;;;;;;;17.17;12.82;;;;;;;;;;5075951;28;20028;-64
2021/11/20 07:49:37;;;;;;;18.33;12.77;;;;;;;;;;5058430;28;20025;-63
2021/11/20 07:52:03;;;;;;;26.98;13.32;;;;;;;;;;5075869;28;20029;-63
2021/11/20 07:54:29;;;;;;;17.85;12.70;;;;;;;;;;5075569;28;20052;-63
2021/11/20 07:56:55;;;;;;;25.92;13.13;;;;;;;;;;5075673;28;20028;-63
2021/11/20 07:59:21;;;;;;;15.27;12.73;;;;;;;;;;5075447;28;20031;-65
2021/11/20 08:01:47;;;;;;;15.75;12.52;;;;;;;;;;5075499;28;20035;-63
2021/11/20 08:04:14;;;;;;;16.23;13.23;;;;;;;;;;5075721;28;20024;-64
2021/11/20 08:06:41;;;;;;;24.88;12.38;;;;;;;;;;5075110;28;20481;-63
2021/11/20 08:09:08;;;;;;;22.05;13.40;;;;;;;;;;5075122;28;20587;-64
2021/11/20 08:11:35;;;;;;;18.92;13.23;;;;;;;;;;5075122;28;20391;-64
2021/11/20 08:14:01;;;;;;;19.85;12.40;;;;;;;;;;5075044;28;20031;-64
2021/11/20 08:16:28;;;;;;;16.17;12.77;;;;;;;;;;5074747;28;20048;-64
2021/11/20 08:18:54;;;;;;;17.05;12.70;;;;;;;;;;5074912;28;20029;-64
2021/11/20 08:21:20;;;;;;;22.00;12.93;;;;;;;;;;5075187;28;20021;-64
2021/11/20 08:23:46;;;;;;;17.48;12.50;;;;;;;;;;5074960;28;20031;-64
2021/11/20 08:26:12;;;;;;;20.00;12.70;;;;;;;;;;5074821;28;20020;-64
2021/11/20 08:28:38;;;;;;;17.60;12.38;;;;;;;;;;5075065;28;20452;-63
2021/11/20 08:31:05;;;;;;;24.27;12.43;;;;;;;;;;5074582;28;20028;-64
2021/11/20 08:33:32;;;;;;;16.63;12.55;;;;;;;;;;5075195;28;20024;-64
2021/11/20 08:35:58;;;;;;;15.77;12.27;;;;;;;;;;5056672;28;20027;-64
2021/11/20 08:38:25;;;;;;;17.85;12.82;;;;;;;;;;5073617;28;20024;-64
2021/11/20 08:40:52;;;;;;;21.27;12.73;;;;;;;;;;5074594;28;20033;-63
2021/11/20 08:43:19;;;;;;;20.63;13.93;;;;;;;;;;5074656;28;20029;-63
2021/11/20 08:45:48;;;;;;;21.48;13.05;;;;;;;;;;5056520;28;20036;-63
2021/11/20 08:48:17;;;;;;;16.95;13.30;;;;;;;;;;5074298;28;20028;-63
2021/11/20 08:50:45;;;;;;;18.52;12.98;;;;;;;;;;5074681;28;20025;-64
2021/11/20 08:53:11;;;;;;;21.45;14.40;;;;;;;;;;5074276;28;20558;-64
2021/11/20 08:55:38;;;;;;;21.38;15.20;;;;;;;;;;5073975;28;20085;-64
2021/11/20 08:58:04;;;;;;;19.05;15.30;;;;;;;;;;5074101;28;20043;-63
2021/11/20 09:00:48;;;;;;;28.23;16.58;;;;;;;;;;5073044;28;20032;-63
2021/11/20 09:03:18;;;;;;;23.58;17.25;;;;;;;;;;5072497;28;20031;-64
2021/11/20 09:05:50;;;;;;;27.50;18.27;;;;;;;;;;5073162;28;20021;-63
2021/11/20 09:08:27;;;;;;;24.40;17.95;;;;;;;;;;5073238;28;20039;-64
2021/11/20 09:11:01;;;;;;;24.10;17.95;;;;;;;;;;5073087;28;20024;-64
2021/11/20 09:13:30;;;;;;;26.63;18.33;;;;;;;;;;5073337;28;20128;-64
2021/11/20 09:16:04;;;;;;;22.83;18.30;;;;;;;;;;5073375;28;20056;-64
2021/11/20 09:18:31;;;;;;;26.13;19.52;;;;;;;;;;5073978;28;20024;-64
2021/11/20 09:20:57;;;;;;;29.25;18.95;;;;;;;;;;5073646;28;20056;-64
2021/11/20 09:23:23;;;;;;;27.27;19.13;;;;;;;;;;5074006;28;20027;-65
2021/11/20 09:25:50;;;;;;;28.88;19.38;;;;;;;;;;5073731;28;20020;-65
2021/11/20 09:28:16;;;;;;;25.20;18.85;;;;;;;;;;5073605;28;20038;-64
2021/11/20 09:30:46;;;;;;;24.63;19.02;;;;;;;;;;5073978;28;20119;-65
2021/11/20 09:33:13;;;;;;;25.65;19.55;;;;;;;;;;5073751;28;20032;-65
2021/11/20 09:35:40;;;;;;;28.23;19.98;;;;;;;;;;5073475;28;20107;-63
2021/11/20 09:38:06;;;;;;;28.38;19.85;;;;;;;;;;5073405;28;20074;-63
2021/11/20 09:40:34;;;;;;;24.95;18.50;;;;;;;;;;5073432;28;20060;-63
2021/11/20 09:43:04;;;;;;;27.55;18.88;;;;;;;;;;5073027;28;20485;-63
2021/11/20 09:45:33;;;;;;;25.27;18.42;;;;;;;;;;5055379;28;20034;-63
2021/11/20 09:48:04;;;;;;;26.50;18.88;;;;;;;;;;5073303;28;20035;-63
2021/11/20 09:50:35;;;;;;;27.75;19.35;;;;;;;;;;5073450;28;20028;-63
2021/11/20 09:53:02;;;;;;;24.65;18.25;;;;;;;;;;5073322;28;20149;-63
2021/11/20 09:55:28;;;;;;;23.33;18.13;;;;;;;;;;5073090;28;20414;-64
2021/11/20 09:58:00;;;;;;;25.05;18.77;;;;;;;;;;5054966;28;20448;-63
2021/11/20 10:00:44;;;;;;;25.50;18.98;;;;;;;;;;5073217;28;20017;-63
2021/11/20 10:03:11;;;;;;;25.42;18.58;;;;;;;;;;5072858;28;20025;-63
2021/11/20 10:05:40;;;;;;;23.10;17.83;;;;;;;;;;5072862;28;20409;-64
2021/11/20 10:08:21;;;;;;;27.50;19.13;;;;;;;;;;5072806;28;20060;-63
2021/11/20 10:10:49;;;;;;;26.60;18.63;;;;;;;;;;5073093;28;20028;-63
2021/11/20 10:13:18;;;;;;;25.88;18.27;;;;;;;;;;5072834;28;20024;-64
2021/11/20 10:16:04;;;;;;;25.38;18.40;;;;;;;;;;5054573;28;20036;-63
2021/11/20 10:18:38;;;;;;;23.67;17.30;;;;;;;;;;5073048;28;20156;-63
2021/11/20 10:21:18;;;;;;;23.85;17.70;;;;;;;;;;5072640;28;20035;-64
2021/11/20 10:23:50;;;;;;;22.75;16.95;;;;;;;;;;5073040;28;20039;-63
2021/11/20 10:26:35;;;;;;;24.70;17.52;;;;;;;;;;5072794;28;20031;-64
2021/11/20 10:29:01;;;;;;;21.60;16.42;;;;;;;;;;5072564;28;20515;-64
2021/11/20 10:31:32;;;;;;;23.60;16.42;;;;;;;;;;5072732;28;20029;-63
2021/11/20 10:34:14;;;;;;;21.02;15.85;;;;;;;;;;5054574;28;20036;-63
2021/11/20 10:36:41;;;;;;;20.85;15.57;;;;;;;;;;5072552;28;20028;-63
2021/11/20 10:39:19;;;;;;;25.65;15.13;;;;;;;;;;5072580;28;20027;-63
2021/11/20 10:42:00;;;;;;;21.10;14.60;;;;;;;;;;5072386;28;20042;-64
2021/11/20 10:44:26;;;;;;;18.40;13.75;;;;;;;;;;5072436;28;20024;-63
2021/11/20 10:46:57;;;;;;;20.17;14.15;;;;;;;;;;5072371;28;20437;-64
2021/11/20 10:49:23;;;;;;;16.40;13.30;;;;;;;;;;5072834;28;20085;-63
2021/11/20 10:52:08;;;;;;;17.77;14.05;;;;;;;;;;5054601;28;20115;-64
2021/11/20 10:54:47;;;;;;;15.20;11.90;;;;;;;;;;5054346;28;20467;-63
2021/11/20 10:57:31;;;;;;;14.13;11.70;;;;;;;;;;5072283;28;20024;-63
2021/11/20 10:59:57;;;;;;;12.93;11.00;;;;;;;;;;5054457;28;20028;-63
2021/11/20 11:02:42;;;;;;;15.32;11.52;;;;;;;;;;5075836;28;20024;-63
2021/11/20 11:05:37;;;;;;;14.48;10.20;;;;;;;;;;5076402;28;20025;-63
2021/11/20 11:08:29;;;;;;;13.38;9.98;;;;;;;;;;5041960;28;20466;-63
2021/11/20 11:10:58;;;;;;;12.65;9.38;;;;;;;;;;5076497;28;20029;-63
2021/11/20 11:13:36;;;;;;;12.60;9.25;;;;;;;;;;5076293;28;20075;-63
2021/11/20 11:16:02;;;;;;;14.57;8.55;;;;;;;;;;5076062;28;20110;-64
2021/11/20 11:18:28;;;;;;;12.32;8.55;;;;;;;;;;5076165;28;20430;-64
2021/11/20 11:21:12;;;;;;;11.32;8.05;;;;;;;;;;5076238;28;20017;-64
2021/11/20 11:23:47;;;;;;;10.05;8.07;;;;;;;;;;5076107;28;20115;-63
2021/11/20 11:26:15;;;;;;;10.18;7.20;;;;;;;;;;5075857;28;20017;-64
2021/11/20 11:28:45;;;;;;;10.80;7.18;;;;;;;;;;5075868;28;20070;-64
2021/11/20 11:31:18;;;;;;;8.65;6.97;;;;;;;;;;5075847;28;20108;-64
2021/11/20 11:33:46;;;;;;;13.68;7.15;;;;;;;;;;5075696;28;20027;-64
2021/11/20 11:36:38;;;;;;;10.13;7.55;;;;;;;;;;5075742;28;20483;-64
2021/11/20 11:39:15;;;;;;;8.65;6.57;;;;;;;;;;5074227;28;20059;-64
2021/11/20 11:41:41;;;;;;;7.85;6.93;;;;;;;;;;5075630;28;20021;-64
2021/11/20 11:44:10;;;;;;;9.50;6.53;;;;;;;;;;5057396;28;20032;-64
2021/11/20 11:46:49;;;;;;;8.07;6.40;;;;;;;;;;5075511;28;20028;-64
2021/11/20 11:49:21;;;;;;;9.27;6.55;;;;;;;;;;5075503;28;20025;-64
2021/11/20 11:51:50;;;;;;;7.28;6.53;;;;;;;;;;5057657;28;20456;-64
2021/11/20 11:54:16;;;;;;;10.13;6.35;;;;;;;;;;5075195;28;20107;-65
2021/11/20 11:56:44;;;;;;;9.02;6.25;;;;;;;;;;5075453;28;20103;-64
2021/11/20 11:59:10;;;;;;;7.35;5.80;;;;;;;;;;5075384;28;20112;-64
2021/11/20 12:01:39;;;;;;;6.75;5.43;;;;;;;;;;5075296;28;20100;-64
2021/11/20 12:04:07;;;;;;;7.80;5.47;;;;;;;;;;5075257;28;20031;-64
2021/11/20 12:06:33;;;;;;;8.35;6.25;;;;;;;;;;5057095;28;20068;-64
2021/11/20 12:09:01;;;;;;;7.60;5.93;;;;;;;;;;5075156;28;20067;-64
2021/11/20 12:11:29;;;;;;;7.82;6.00;;;;;;;;;;5075066;28;20397;-64
2021/11/20 12:14:08;;;;;;;9.07;5.70;;;;;;;;;;5074176;28;20050;-64
2021/11/20 12:16:56;;;;;;;7.35;5.88;;;;;;;;;;5074816;28;20076;-64
2021/11/20 12:19:33;;;;;;;7.93;5.40;;;;;;;;;;5071072;28;20045;-64
2021/11/20 12:22:12;;;;;;;7.15;5.82;;;;;;;;;;5075086;28;20125;-64
2021/11/20 12:24:41;;;;;;;9.43;5.32;;;;;;;;;;5075386;28;20104;-64
2021/11/20 12:27:22;;;;;;;7.63;5.55;;;;;;;;;;5074774;28;20495;-64
2021/11/20 12:29:51;;;;;;;9.30;5.25;;;;;;;;;;5057069;28;20024;-64
2021/11/20 12:32:26;;;;;;;7.05;5.22;;;;;;;;;;5074741;28;20020;-64
2021/11/20 12:35:01;;;;;;;9.77;5.60;;;;;;;;;;5056581;28;20028;-64
2021/11/20 12:37:27;;;;;;;6.35;4.72;;;;;;;;;;5074542;28;20035;-64
2021/11/20 12:39:58;;;;;;;6.43;5.25;;;;;;;;;;5074715;28;20099;-64
2021/11/20 12:42:37;;;;;;;7.75;5.63;;;;;;;;;;5074342;28;20082;-64
2021/11/20 12:45:15;;;;;;;6.63;5.93;;;;;;;;;;5069914;28;20024;-64
2021/11/20 12:47:59;;;;;;;8.95;5.55;;;;;;;;;;5074678;28;20028;-63
2021/11/20 12:50:25;;;;;;;9.57;6.63;;;;;;;;;;5074352;28;20039;-64
2021/11/20 12:52:54;;;;;;;10.82;6.93;;;;;;;;;;5074493;28;20021;-64
2021/11/20 12:55:36;;;;;;;10.77;7.47;;;;;;;;;;5056181;28;20056;-64
2021/11/20 12:58:07;;;;;;;11.15;7.75;;;;;;;;;;5074398;28;20130;-64
2021/11/20 13:00:36;;;;;;;10.83;8.30;;;;;;;;;;5074122;28;20085;-63
2021/11/20 13:03:04;;;;;;;12.38;8.43;;;;;;;;;;5074127;28;20027;-64
2021/11/20 13:05:30;;;;;;;11.68;8.48;;;;;;;;;;5074118;28;20052;-63
2021/11/20 13:08:01;;;;;;;13.68;8.18;;;;;;;;;;5074179;28;20036;-63
2021/11/20 13:10:27;;;;;;;14.52;9.70;;;;;;;;;;5073903;28;20039;-64
2021/11/20 13:13:13;;;;;;;12.18;8.65;;;;;;;;;;5073878;28;20363;-64
2021/11/20 13:15:58;;;;;;;14.98;10.93;;;;;;;;;;5073555;28;20067;-63
2021/11/20 13:18:27;;;;;;;16.63;9.88;;;;;;;;;;5073888;28;20020;-64
2021/11/20 13:21:07;;;;;;;13.43;10.40;;;;;;;;;;5073762;28;20533;-64
2021/11/20 13:23:35;;;;;;;13.55;10.05;;;;;;;;;;5073484;28;20064;-64
2021/11/20 13:26:01;;;;;;;15.15;11.38;;;;;;;;;;5073728;28;20427;-64
2021/11/20 13:28:29;;;;;;;16.70;11.90;;;;;;;;;;5073646;28;20472;-63
2021/11/20 13:30:55;;;;;;;17.88;12.70;;;;;;;;;;5073544;28;20028;-64
2021/11/20 13:33:21;;;;;;;20.02;12.43;;;;;;;;;;5073541;28;20024;-63
2021/11/20 13:35:47;;;;;;;16.27;12.30;;;;;;;;;;5073432;28;20021;-64
2021/11/20 13:38:14;;;;;;;18.35;12.25;;;;;;;;;;5073689;28;20110;-64
2021/11/20 13:40:42;;;;;;;17.02;12.20;;;;;;;;;;5073614;28;20032;-63
2021/11/20 13:43:15;;;;;;;17.45;12.85;;;;;;;;;;5073186;28;20031;-64
2021/11/20 13:45:42;;;;;;;17.98;12.55;;;;;;;;;;5053365;28;20029;-63
2021/11/20 13:48:08;;;;;;;18.63;12.95;;;;;;;;;;5053166;28;20481;-64
2021/11/20 13:50:42;;;;;;;17.67;12.77;;;;;;;;;;5052983;28;20028;-64
2021/11/20 13:53:15;;;;;;;17.67;12.70;;;;;;;;;;5054629;28;20025;-64
2021/11/20 13:55:45;;;;;;;22.90;13.55;;;;;;;;;;5072964;28;20470;-63
2021/11/20 13:58:22;;;;;;;16.63;12.95;;;;;;;;;;5073074;28;20052;-64
2021/11/20 14:00:49;;;;;;;20.25;12.73;;;;;;;;;;5073289;28;20024;-64
2021/11/20 14:03:16;;;;;;;18.00;13.07;;;;;;;;;;5073288;28;20029;-64
2021/11/20 14:05:42;;;;;;;17.15;12.63;;;;;;;;;;5073059;28;20111;-63
2021/11/20 14:08:08;;;;;;;19.25;14.63;;;;;;;;;;5072904;28;20032;-64
2021/11/20 14:10:38;;;;;;;17.75;13.82;;;;;;;;;;5073027;28;20082;-64
2021/11/20 14:13:06;;;;;;;20.73;14.48;;;;;;;;;;5073005;28;20520;-64
2021/11/20 14:15:42;;;;;;;21.25;15.32;;;;;;;;;;5072703;28;20040;-64
2021/11/20 14:18:08;;;;;;;18.55;14.13;;;;;;;;;;5072890;28;20047;-64
2021/11/20 14:20:50;;;;;;;18.02;14.73;;;;;;;;;;5072700;28;20317;-64
2021/11/20 14:23:19;;;;;;;20.02;14.88;;;;;;;;;;5072993;28;20024;-64
2021/11/20 14:25:46;;;;;;;17.98;14.27;;;;;;;;;;5072478;28;20023;-63
2021/11/20 14:28:12;;;;;;;18.00;14.55;;;;;;;;;;5072603;28;20046;-64
2021/11/20 14:30:39;;;;;;;21.23;14.70;;;;;;;;;;5072771;28;20099;-64
2021/11/20 14:33:17;;;;;;;20.77;14.23;;;;;;;;;;5072508;28;20104;-64
2021/11/20 14:35:56;;;;;;;17.63;13.73;;;;;;;;;;5071887;28;20024;-63
2021/11/20 14:38:23;;;;;;;21.85;14.35;;;;;;;;;;5072757;28;20139;-64
2021/11/20 14:40:50;;;;;;;20.48;14.73;;;;;;;;;;5072732;28;20032;-64
2021/11/20 14:43:21;;;;;;;16.52;13.73;;;;;;;;;;5071597;28;20483;-64
2021/11/20 14:45:47;;;;;;;18.77;14.63;;;;;;;;;;5052583;28;20082;-63